sensor_id;sensor_type;location;lat;lon;timestamp;pressure;altitude;pressure_sealevel;temperature;humidity
79376;BME280;68846;53.150;18.136;2023-05-07T00:00:47;101876.63;;;6.72;75.90
79376;BME280;68846;53.150;18.136;2023-05-07T00:03:21;101866.52;;;6.57;76.18
79376;BME280;68846;53.150;18.136;2023-05-07T00:05:47;101876.90;;;6.59;76.29
79376;BME280;68846;53.150;18.136;2023-05-07T00:08:13;101874.83;;;6.56;76.28
79376;BME280;68846;53.150;18.136;2023-05-07T00:10:40;101878.72;;;6.53;76.21
79376;BME280;68846;53.150;18.136;2023-05-07T00:13:06;101867.86;;;6.45;76.40
79376;BME280;68846;53.150;18.136;2023-05-07T00:15:33;101878.50;;;6.48;76.28
79376;BME280;68846;53.150;18.136;2023-05-07T00:17:59;101876.98;;;6.46;76.28
79376;BME280;68846;53.150;18.136;2023-05-07T00:20:25;101876.67;;;6.42;76.12
79376;BME280;68846;53.150;18.136;2023-05-07T00:22:52;101876.83;;;6.38;76.27
79376;BME280;68846;53.150;18.136;2023-05-07T00:25:18;101880.38;;;6.36;76.36
79376;BME280;68846;53.150;18.136;2023-05-07T00:27:45;101882.92;;;6.34;76.40
79376;BME280;68846;53.150;18.136;2023-05-07T00:30:11;101882.37;;;6.34;76.23
79376;BME280;68846;53.150;18.136;2023-05-07T00:32:38;101879.04;;;6.37;76.32
79376;BME280;68846;53.150;18.136;2023-05-07T00:35:05;101884.23;;;6.39;76.35
79376;BME280;68846;53.150;18.136;2023-05-07T00:37:31;101888.22;;;6.42;76.43
79376;BME280;68846;53.150;18.136;2023-05-07T00:39:58;101889.84;;;6.43;76.36
79376;BME280;68846;53.150;18.136;2023-05-07T00:42:24;101891.05;;;6.43;76.29
79376;BME280;68846;53.150;18.136;2023-05-07T00:44:51;101893.34;;;6.40;76.27
79376;BME280;68846;53.150;18.136;2023-05-07T00:47:17;101895.42;;;6.36;76.19
79376;BME280;68846;53.150;18.136;2023-05-07T00:49:44;101900.02;;;6.33;76.25
79376;BME280;68846;53.150;18.136;2023-05-07T00:52:14;101897.94;;;6.30;76.29
79376;BME280;68846;53.150;18.136;2023-05-07T00:54:42;101904.35;;;6.29;76.16
79376;BME280;68846;53.150;18.136;2023-05-07T00:57:09;101905.46;;;6.26;75.93
79376;BME280;68846;53.150;18.136;2023-05-07T00:59:37;101908.59;;;6.26;75.94
79376;BME280;68846;53.150;18.136;2023-05-07T01:02:03;101906.16;;;6.26;76.09
79376;BME280;68846;53.150;18.136;2023-05-07T01:04:29;101896.23;;;6.19;75.85
79376;BME280;68846;53.150;18.136;2023-05-07T01:06:57;101902.83;;;6.23;75.81
79376;BME280;68846;53.150;18.136;2023-05-07T01:09:25;101903.38;;;6.15;75.76
79376;BME280;68846;53.150;18.136;2023-05-07T01:11:52;101894.41;;;5.96;75.81
79376;BME280;68846;53.150;18.136;2023-05-07T01:14:19;101904.74;;;5.93;76.02
79376;BME280;68846;53.150;18.136;2023-05-07T01:16:47;101906.63;;;5.82;75.95
79376;BME280;68846;53.150;18.136;2023-05-07T01:19:17;101905.83;;;5.70;76.17
79376;BME280;68846;53.150;18.136;2023-05-07T01:21:48;101906.36;;;5.60;76.17
79376;BME280;68846;53.150;18.136;2023-05-07T01:24:15;101896.32;;;5.48;76.30
79376;BME280;68846;53.150;18.136;2023-05-07T01:26:42;101907.63;;;5.53;76.39
79376;BME280;68846;53.150;18.136;2023-05-07T01:29:10;101908.91;;;5.51;76.35
79376;BME280;68846;53.150;18.136;2023-05-07T01:31:37;101919.60;;;5.46;76.44
79376;BME280;68846;53.150;18.136;2023-05-07T01:34:03;101920.42;;;5.37;76.45
79376;BME280;68846;53.150;18.136;2023-05-07T01:36:31;101923.84;;;5.29;76.44
79376;BME280;68846;53.150;18.136;2023-05-07T01:38:58;101928.95;;;5.20;76.49
79376;BME280;68846;53.150;18.136;2023-05-07T01:41:25;101927.86;;;5.13;76.61
79376;BME280;68846;53.150;18.136;2023-05-07T01:43:52;101926.17;;;5.04;76.68
79376;BME280;68846;53.150;18.136;2023-05-07T01:46:20;101930.85;;;5.00;76.89
79376;BME280;68846;53.150;18.136;2023-05-07T01:48:46;101930.02;;;5.01;76.88
79376;BME280;68846;53.150;18.136;2023-05-07T01:51:13;101930.10;;;4.99;76.81
79376;BME280;68846;53.150;18.136;2023-05-07T01:53:40;101933.00;;;4.97;76.68
79376;BME280;68846;53.150;18.136;2023-05-07T01:56:10;101921.51;;;4.88;76.64
79376;BME280;68846;53.150;18.136;2023-05-07T01:58:37;101936.98;;;4.94;76.70
79376;BME280;68846;53.150;18.136;2023-05-07T02:01:03;101938.64;;;4.92;76.91
79376;BME280;68846;53.150;18.136;2023-05-07T02:03:29;101939.30;;;4.88;76.99
79376;BME280;68846;53.150;18.136;2023-05-07T02:06:00;101924.52;;;4.76;77.04
79376;BME280;68846;53.150;18.136;2023-05-07T02:08:38;101924.96;;;4.68;76.97
79376;BME280;68846;53.150;18.136;2023-05-07T02:11:05;101936.00;;;4.73;76.99
79376;BME280;68846;53.150;18.136;2023-05-07T02:13:32;101937.93;;;4.73;76.73
79376;BME280;68846;53.150;18.136;2023-05-07T02:16:01;101929.87;;;4.69;76.62
79376;BME280;68846;53.150;18.136;2023-05-07T02:18:28;101922.41;;;4.73;76.69
79376;BME280;68846;53.150;18.136;2023-05-07T02:20:54;101938.10;;;4.82;76.75
79376;BME280;68846;53.150;18.136;2023-05-07T02:23:21;101941.48;;;4.83;76.67
79376;BME280;68846;53.150;18.136;2023-05-07T02:25:47;101945.41;;;4.85;76.79
79376;BME280;68846;53.150;18.136;2023-05-07T02:28:13;101949.89;;;4.87;76.77
79376;BME280;68846;53.150;18.136;2023-05-07T02:30:45;101939.69;;;4.79;76.80
79376;BME280;68846;53.150;18.136;2023-05-07T02:33:11;101949.62;;;4.79;76.82
79376;BME280;68846;53.150;18.136;2023-05-07T02:35:39;101949.15;;;4.73;76.89
79376;BME280;68846;53.150;18.136;2023-05-07T02:38:06;101945.11;;;4.67;76.98
79376;BME280;68846;53.150;18.136;2023-05-07T02:40:32;101945.64;;;4.63;76.96
79376;BME280;68846;53.150;18.136;2023-05-07T02:43:04;101945.17;;;4.65;77.18
79376;BME280;68846;53.150;18.136;2023-05-07T02:45:31;101945.30;;;4.70;77.19
79376;BME280;68846;53.150;18.136;2023-05-07T02:47:59;101949.20;;;4.77;77.04
79376;BME280;68846;53.150;18.136;2023-05-07T02:50:25;101954.27;;;4.84;76.83
79376;BME280;68846;53.150;18.136;2023-05-07T02:52:52;101952.45;;;4.90;76.71
79376;BME280;68846;53.150;18.136;2023-05-07T02:55:19;101960.27;;;4.92;76.55
79376;BME280;68846;53.150;18.136;2023-05-07T02:57:45;101954.02;;;4.93;76.41
79376;BME280;68846;53.150;18.136;2023-05-07T03:00:16;101956.92;;;4.91;76.58
79376;BME280;68846;53.150;18.136;2023-05-07T03:02:52;101956.09;;;4.89;76.69
79376;BME280;68846;53.150;18.136;2023-05-07T03:05:18;101958.80;;;4.87;76.62
79376;BME280;68846;53.150;18.136;2023-05-07T03:07:44;101956.96;;;4.86;76.67
79376;BME280;68846;53.150;18.136;2023-05-07T03:10:12;101957.31;;;4.82;76.86
79376;BME280;68846;53.150;18.136;2023-05-07T03:12:38;101965.92;;;4.87;76.65
79376;BME280;68846;53.150;18.136;2023-05-07T03:15:04;101967.51;;;4.87;76.52
79376;BME280;68846;53.150;18.136;2023-05-07T03:17:31;101973.73;;;4.89;76.69
79376;BME280;68846;53.150;18.136;2023-05-07T03:19:57;101974.39;;;4.88;76.69
79376;BME280;68846;53.150;18.136;2023-05-07T03:22:23;101975.91;;;4.87;76.82
79376;BME280;68846;53.150;18.136;2023-05-07T03:24:49;101970.77;;;4.83;76.70
79376;BME280;68846;53.150;18.136;2023-05-07T03:27:16;101981.70;;;4.88;76.69
79376;BME280;68846;53.150;18.136;2023-05-07T03:29:42;101986.38;;;4.84;76.45
79376;BME280;68846;53.150;18.136;2023-05-07T03:32:08;101983.75;;;4.80;76.57
79376;BME280;68846;53.150;18.136;2023-05-07T03:34:35;101978.38;;;4.72;76.69
79376;BME280;68846;53.150;18.136;2023-05-07T03:37:02;101984.20;;;4.76;76.60
79376;BME280;68846;53.150;18.136;2023-05-07T03:39:28;101989.72;;;4.78;76.68
79376;BME280;68846;53.150;18.136;2023-05-07T03:41:54;101993.33;;;4.80;76.54
79376;BME280;68846;53.150;18.136;2023-05-07T03:44:21;101991.52;;;4.82;76.59
79376;BME280;68846;53.150;18.136;2023-05-07T03:46:49;101993.56;;;4.84;76.70
79376;BME280;68846;53.150;18.136;2023-05-07T03:49:16;101992.66;;;4.87;76.75
79376;BME280;68846;53.150;18.136;2023-05-07T03:51:42;101997.36;;;4.91;76.96
79376;BME280;68846;53.150;18.136;2023-05-07T03:54:09;101998.16;;;4.92;77.04
79376;BME280;68846;53.150;18.136;2023-05-07T03:56:35;102002.79;;;4.93;77.20
79376;BME280;68846;53.150;18.136;2023-05-07T03:59:02;102002.77;;;4.93;77.18
79376;BME280;68846;53.150;18.136;2023-05-07T04:01:28;102006.44;;;4.93;77.10
79376;BME280;68846;53.150;18.136;2023-05-07T04:03:55;102006.67;;;4.92;77.17
79376;BME280;68846;53.150;18.136;2023-05-07T04:06:22;102009.31;;;4.92;77.34
79376;BME280;68846;53.150;18.136;2023-05-07T04:08:49;101999.02;;;4.88;77.47
79376;BME280;68846;53.150;18.136;2023-05-07T04:11:15;102014.27;;;4.99;77.34
79376;BME280;68846;53.150;18.136;2023-05-07T04:13:41;102018.10;;;5.05;77.44
79376;BME280;68846;53.150;18.136;2023-05-07T04:16:08;102022.74;;;5.11;77.41
79376;BME280;68846;53.150;18.136;2023-05-07T04:18:36;102022.82;;;5.15;77.27
79376;BME280;68846;53.150;18.136;2023-05-07T04:21:02;102019.77;;;5.14;77.24
79376;BME280;68846;53.150;18.136;2023-05-07T04:23:28;102037.25;;;5.24;76.89
79376;BME280;68846;53.150;18.136;2023-05-07T04:25:54;102037.79;;;5.27;77.15
79376;BME280;68846;53.150;18.136;2023-05-07T04:28:41;102037.86;;;5.32;77.12
79376;BME280;68846;53.150;18.136;2023-05-07T04:31:08;102038.39;;;5.35;77.18
79376;BME280;68846;53.150;18.136;2023-05-07T04:33:36;102041.37;;;5.39;77.29
79376;BME280;68846;53.150;18.136;2023-05-07T04:36:03;102044.81;;;5.41;77.18
79376;BME280;68846;53.150;18.136;2023-05-07T04:38:30;102041.10;;;5.43;77.34
79376;BME280;68846;53.150;18.136;2023-05-07T04:41:02;102044.52;;;5.48;77.28
79376;BME280;68846;53.150;18.136;2023-05-07T04:43:29;102048.52;;;5.55;77.11
79376;BME280;68846;53.150;18.136;2023-05-07T04:45:55;102050.50;;;5.62;77.06
79376;BME280;68846;53.150;18.136;2023-05-07T04:48:23;102046.64;;;5.69;77.00
79376;BME280;68846;53.150;18.136;2023-05-07T04:50:50;102053.20;;;5.74;76.73
79376;BME280;68846;53.150;18.136;2023-05-07T04:53:17;102056.63;;;5.76;76.57
79376;BME280;68846;53.150;18.136;2023-05-07T04:55:44;102057.33;;;5.79;76.69
79376;BME280;68846;53.150;18.136;2023-05-07T04:58:11;102060.12;;;5.82;76.65
79376;BME280;68846;53.150;18.136;2023-05-07T05:00:38;102061.25;;;5.84;76.65
79376;BME280;68846;53.150;18.136;2023-05-07T05:03:08;102065.36;;;5.86;76.71
79376;BME280;68846;53.150;18.136;2023-05-07T05:05:34;102071.26;;;5.88;76.69
79376;BME280;68846;53.150;18.136;2023-05-07T05:08:01;102068.52;;;5.89;76.66
79376;BME280;68846;53.150;18.136;2023-05-07T05:10:27;102057.30;;;5.89;76.59
79376;BME280;68846;53.150;18.136;2023-05-07T05:12:54;102055.39;;;5.96;76.50
79376;BME280;68846;53.150;18.136;2023-05-07T05:15:21;102072.72;;;6.09;76.61
79376;BME280;68846;53.150;18.136;2023-05-07T05:17:47;102076.02;;;6.16;76.23
79376;BME280;68846;53.150;18.136;2023-05-07T05:20:14;102075.48;;;6.22;76.16
79376;BME280;68846;53.150;18.136;2023-05-07T05:22:42;102077.58;;;6.29;75.94
79376;BME280;68846;53.150;18.136;2023-05-07T05:25:08;102078.48;;;6.33;75.89
79376;BME280;68846;53.150;18.136;2023-05-07T05:27:34;102081.60;;;6.32;75.22
79376;BME280;68846;53.150;18.136;2023-05-07T05:30:01;102085.19;;;6.31;74.89
79376;BME280;68846;53.150;18.136;2023-05-07T05:32:28;102067.88;;;6.24;74.93
79376;BME280;68846;53.150;18.136;2023-05-07T05:34:56;102082.98;;;6.32;74.96
79376;BME280;68846;53.150;18.136;2023-05-07T05:37:22;102075.52;;;6.26;74.90
79376;BME280;68846;53.150;18.136;2023-05-07T05:39:49;102090.11;;;6.35;74.99
79376;BME280;68846;53.150;18.136;2023-05-07T05:42:15;102084.88;;;6.31;75.22
79376;BME280;68846;53.150;18.136;2023-05-07T05:44:41;102092.93;;;6.46;75.15
79376;BME280;68846;53.150;18.136;2023-05-07T05:47:08;102089.35;;;6.55;75.35
79376;BME280;68846;53.150;18.136;2023-05-07T05:49:34;102085.03;;;6.63;75.23
79376;BME280;68846;53.150;18.136;2023-05-07T05:52:02;102086.17;;;6.67;74.38
79376;BME280;68846;53.150;18.136;2023-05-07T05:54:29;102086.91;;;6.69;74.17
79376;BME280;68846;53.150;18.136;2023-05-07T05:56:55;102092.27;;;6.71;74.39
79376;BME280;68846;53.150;18.136;2023-05-07T05:59:23;102093.50;;;6.78;74.38
79376;BME280;68846;53.150;18.136;2023-05-07T06:01:49;102093.81;;;6.85;74.26
79376;BME280;68846;53.150;18.136;2023-05-07T06:04:16;102094.98;;;6.91;74.13
79376;BME280;68846;53.150;18.136;2023-05-07T06:06:42;102094.44;;;6.98;74.66
79376;BME280;68846;53.150;18.136;2023-05-07T06:09:09;102093.48;;;7.03;74.53
79376;BME280;68846;53.150;18.136;2023-05-07T06:11:39;102088.38;;;7.03;74.87
79376;BME280;68846;53.150;18.136;2023-05-07T06:14:07;102094.23;;;7.08;74.51
79376;BME280;68846;53.150;18.136;2023-05-07T06:16:33;102097.35;;;7.15;74.61
79376;BME280;68846;53.150;18.136;2023-05-07T06:19:00;102085.77;;;7.18;74.69
79376;BME280;68846;53.150;18.136;2023-05-07T06:21:26;102090.83;;;7.29;74.25
79376;BME280;68846;53.150;18.136;2023-05-07T06:23:52;102096.17;;;7.38;74.04
79376;BME280;68846;53.150;18.136;2023-05-07T06:26:21;102089.48;;;7.38;74.11
79376;BME280;68846;53.150;18.136;2023-05-07T06:28:47;102100.21;;;7.50;73.63
79376;BME280;68846;53.150;18.136;2023-05-07T06:31:16;102100.38;;;7.54;74.02
79376;BME280;68846;53.150;18.136;2023-05-07T06:33:46;102104.84;;;7.56;73.48
79376;BME280;68846;53.150;18.136;2023-05-07T06:36:12;102099.89;;;7.58;72.66
79376;BME280;68846;53.150;18.136;2023-05-07T06:38:39;102087.38;;;7.53;72.31
79376;BME280;68846;53.150;18.136;2023-05-07T06:41:06;102100.30;;;7.60;72.62
79376;BME280;68846;53.150;18.136;2023-05-07T06:43:32;102097.02;;;7.61;72.99
79376;BME280;68846;53.150;18.136;2023-05-07T06:46:27;102099.77;;;7.63;73.17
79376;BME280;68846;53.150;18.136;2023-05-07T06:48:54;102101.48;;;7.66;73.15
79376;BME280;68846;53.150;18.136;2023-05-07T06:51:20;102108.19;;;7.71;72.97
79376;BME280;68846;53.150;18.136;2023-05-07T06:53:46;102107.77;;;7.77;72.22
79376;BME280;68846;53.150;18.136;2023-05-07T06:56:12;102111.48;;;7.86;71.96
79376;BME280;68846;53.150;18.136;2023-05-07T06:58:39;102111.35;;;7.94;71.74
79376;BME280;68846;53.150;18.136;2023-05-07T07:01:06;102110.95;;;8.01;70.86
79376;BME280;68846;53.150;18.136;2023-05-07T07:03:32;102105.55;;;8.02;70.50
79376;BME280;68846;53.150;18.136;2023-05-07T07:05:58;102092.20;;;7.98;70.81
79376;BME280;68846;53.150;18.136;2023-05-07T07:08:25;102116.94;;;8.14;70.72
79376;BME280;68846;53.150;18.136;2023-05-07T07:10:52;102111.55;;;8.11;69.70
79376;BME280;68846;53.150;18.136;2023-05-07T07:13:19;102122.77;;;8.19;68.89
79376;BME280;68846;53.150;18.136;2023-05-07T07:15:46;102123.02;;;8.21;68.43
79376;BME280;68846;53.150;18.136;2023-05-07T07:18:13;102128.65;;;8.25;68.94
79376;BME280;68846;53.150;18.136;2023-05-07T07:20:39;102125.38;;;8.30;68.93
79376;BME280;68846;53.150;18.136;2023-05-07T07:23:07;102127.84;;;8.34;68.20
79376;BME280;68846;53.150;18.136;2023-05-07T07:25:33;102125.16;;;8.37;67.88
79376;BME280;68846;53.150;18.136;2023-05-07T07:27:59;102130.38;;;8.44;66.60
79376;BME280;68846;53.150;18.136;2023-05-07T07:30:26;102131.13;;;8.49;66.75
79376;BME280;68846;53.150;18.136;2023-05-07T07:32:53;102124.20;;;8.47;67.35
79376;BME280;68846;53.150;18.136;2023-05-07T07:35:19;102128.45;;;8.57;66.89
79376;BME280;68846;53.150;18.136;2023-05-07T07:37:46;102125.38;;;8.59;66.48
79376;BME280;68846;53.150;18.136;2023-05-07T07:40:13;102121.52;;;8.59;66.90
79376;BME280;68846;53.150;18.136;2023-05-07T07:42:40;102121.23;;;8.60;66.13
79376;BME280;68846;53.150;18.136;2023-05-07T07:45:07;102122.30;;;8.65;65.46
79376;BME280;68846;53.150;18.136;2023-05-07T07:47:34;102124.96;;;8.70;64.43
79376;BME280;68846;53.150;18.136;2023-05-07T07:50:00;102126.06;;;8.75;65.05
79376;BME280;68846;53.150;18.136;2023-05-07T07:52:27;102132.25;;;8.80;65.61
79376;BME280;68846;53.150;18.136;2023-05-07T07:54:54;102128.86;;;8.83;64.89
79376;BME280;68846;53.150;18.136;2023-05-07T07:57:20;102131.18;;;8.93;63.84
79376;BME280;68846;53.150;18.136;2023-05-07T07:59:47;102134.08;;;8.99;63.34
79376;BME280;68846;53.150;18.136;2023-05-07T08:02:14;102134.38;;;9.06;63.18
79376;BME280;68846;53.150;18.136;2023-05-07T08:04:40;102130.42;;;9.14;63.15
79376;BME280;68846;53.150;18.136;2023-05-07T08:07:12;102131.86;;;9.18;62.53
79376;BME280;68846;53.150;18.136;2023-05-07T08:09:40;102131.64;;;9.26;61.84
79376;BME280;68846;53.150;18.136;2023-05-07T08:12:07;102135.11;;;9.39;61.57
79376;BME280;68846;53.150;18.136;2023-05-07T08:14:34;102136.35;;;9.48;60.51
79376;BME280;68846;53.150;18.136;2023-05-07T08:17:02;102133.68;;;9.56;59.77
79376;BME280;68846;53.150;18.136;2023-05-07T08:19:29;102138.11;;;9.66;59.78
79376;BME280;68846;53.150;18.136;2023-05-07T08:21:56;102140.35;;;9.75;59.71
79376;BME280;68846;53.150;18.136;2023-05-07T08:24:46;102143.13;;;9.83;58.81
79376;BME280;68846;53.150;18.136;2023-05-07T08:27:13;102137.88;;;9.93;57.89
79376;BME280;68846;53.150;18.136;2023-05-07T08:29:40;102123.80;;;9.94;58.82
79376;BME280;68846;53.150;18.136;2023-05-07T08:32:07;102144.05;;;10.13;59.20
79376;BME280;68846;53.150;18.136;2023-05-07T08:34:48;102133.98;;;10.17;60.27
79376;BME280;68846;53.150;18.136;2023-05-07T08:37:14;102143.04;;;10.28;59.75
79376;BME280;68846;53.150;18.136;2023-05-07T08:39:41;102142.71;;;10.34;59.31
79376;BME280;68846;53.150;18.136;2023-05-07T08:42:12;102142.10;;;10.41;59.24
79376;BME280;68846;53.150;18.136;2023-05-07T08:44:45;102144.98;;;10.48;58.47
79376;BME280;68846;53.150;18.136;2023-05-07T08:47:16;102148.40;;;10.56;58.03
79376;BME280;68846;53.150;18.136;2023-05-07T08:49:43;102146.52;;;10.62;57.75
79376;BME280;68846;53.150;18.136;2023-05-07T08:52:12;102152.78;;;10.70;57.60
79376;BME280;68846;53.150;18.136;2023-05-07T08:54:38;102148.85;;;10.80;55.94
79376;BME280;68846;53.150;18.136;2023-05-07T08:57:05;102151.09;;;10.89;54.59
79376;BME280;68846;53.150;18.136;2023-05-07T08:59:32;102149.61;;;10.97;55.28
79376;BME280;68846;53.150;18.136;2023-05-07T09:01:59;102145.16;;;11.07;55.58
79376;BME280;68846;53.150;18.136;2023-05-07T09:04:25;102154.25;;;11.21;53.81
79376;BME280;68846;53.150;18.136;2023-05-07T09:06:52;102144.07;;;11.28;54.87
79376;BME280;68846;53.150;18.136;2023-05-07T09:09:18;102143.70;;;11.33;53.89
79376;BME280;68846;53.150;18.136;2023-05-07T09:11:45;102157.65;;;11.45;52.78
79376;BME280;68846;53.150;18.136;2023-05-07T09:14:11;102160.16;;;11.52;54.01
79376;BME280;68846;53.150;18.136;2023-05-07T09:16:41;102155.63;;;11.60;52.49
79376;BME280;68846;53.150;18.136;2023-05-07T09:19:07;102157.77;;;11.66;52.35
79376;BME280;68846;53.150;18.136;2023-05-07T09:21:35;102150.89;;;11.72;53.84
79376;BME280;68846;53.150;18.136;2023-05-07T09:24:02;102153.73;;;11.79;52.18
79376;BME280;68846;53.150;18.136;2023-05-07T09:26:33;102154.81;;;11.85;52.61
79376;BME280;68846;53.150;18.136;2023-05-07T09:29:01;102152.54;;;11.91;52.85
79376;BME280;68846;53.150;18.136;2023-05-07T09:31:27;102149.42;;;12.00;53.15
79376;BME280;68846;53.150;18.136;2023-05-07T09:33:54;102152.10;;;12.07;52.78
79376;BME280;68846;53.150;18.136;2023-05-07T09:36:23;102153.71;;;12.14;51.57
79376;BME280;68846;53.150;18.136;2023-05-07T09:38:50;102152.80;;;12.26;50.54
79376;BME280;68846;53.150;18.136;2023-05-07T09:41:17;102158.70;;;12.35;51.74
79376;BME280;68846;53.150;18.136;2023-05-07T09:44:17;102163.04;;;12.39;51.63
79376;BME280;68846;53.150;18.136;2023-05-07T09:46:53;102160.05;;;12.39;51.76
79376;BME280;68846;53.150;18.136;2023-05-07T09:49:24;102160.05;;;12.40;51.65
79376;BME280;68846;53.150;18.136;2023-05-07T09:51:58;102141.91;;;12.35;51.88
79376;BME280;68846;53.150;18.136;2023-05-07T09:54:26;102162.41;;;12.61;51.69
79376;BME280;68846;53.150;18.136;2023-05-07T09:56:57;102161.37;;;12.83;51.22
79376;BME280;68846;53.150;18.136;2023-05-07T09:59:27;102160.80;;;13.03;50.72
79376;BME280;68846;53.150;18.136;2023-05-07T10:01:56;102162.59;;;13.18;50.83
79376;BME280;68846;53.150;18.136;2023-05-07T10:04:27;102166.02;;;13.28;50.82
79376;BME280;68846;53.150;18.136;2023-05-07T10:06:55;102170.42;;;13.34;50.12
79376;BME280;68846;53.150;18.136;2023-05-07T10:09:23;102169.98;;;13.39;50.23
79376;BME280;68846;53.150;18.136;2023-05-07T10:11:52;102173.94;;;13.48;50.59
79376;BME280;68846;53.150;18.136;2023-05-07T10:14:21;102162.77;;;13.55;50.06
79376;BME280;68846;53.150;18.136;2023-05-07T10:16:49;102172.52;;;13.73;49.07
79376;BME280;68846;53.150;18.136;2023-05-07T10:19:16;102180.38;;;13.84;48.44
79376;BME280;68846;53.150;18.136;2023-05-07T10:21:55;102177.91;;;13.85;48.38
79376;BME280;68846;53.150;18.136;2023-05-07T10:24:30;102178.58;;;13.82;48.98
79376;BME280;68846;53.150;18.136;2023-05-07T10:26:58;102179.83;;;13.83;49.08
79376;BME280;68846;53.150;18.136;2023-05-07T10:29:39;102174.63;;;13.88;49.38
79376;BME280;68846;53.150;18.136;2023-05-07T10:32:45;102175.38;;;13.90;48.71
79376;BME280;68846;53.150;18.136;2023-05-07T10:35:20;102176.73;;;13.80;48.00
79376;BME280;68846;53.150;18.136;2023-05-07T10:37:48;102174.59;;;13.87;48.23
79376;BME280;68846;53.150;18.136;2023-05-07T10:40:16;102176.83;;;14.00;47.94
79376;BME280;68846;53.150;18.136;2023-05-07T10:43:00;102179.38;;;14.13;47.85
79376;BME280;68846;53.150;18.136;2023-05-07T10:45:30;102175.96;;;14.19;47.71
79376;BME280;68846;53.150;18.136;2023-05-07T10:48:12;102177.71;;;14.18;47.05
79376;BME280;68846;53.150;18.136;2023-05-07T10:50:41;102169.77;;;14.29;46.96
79376;BME280;68846;53.150;18.136;2023-05-07T10:56:38;102170.03;;;14.51;47.65
79376;BME280;68846;53.150;18.136;2023-05-07T10:58:46;102161.37;;;14.71;46.83
79376;BME280;68846;53.150;18.136;2023-05-07T11:01:52;102162.60;;;14.91;45.39
79376;BME280;68846;53.150;18.136;2023-05-07T11:04:22;102168.46;;;15.03;45.61
79376;BME280;68846;53.150;18.136;2023-05-07T11:15:48;102165.65;;;15.15;44.32
79376;BME280;68846;53.150;18.136;2023-05-07T11:18:24;102173.52;;;15.09;44.67
79376;BME280;68846;53.150;18.136;2023-05-07T11:20:54;102178.09;;;15.17;44.89
79376;BME280;68846;53.150;18.136;2023-05-07T11:26:10;102178.80;;;15.52;42.98
79376;BME280;68846;53.150;18.136;2023-05-07T11:28:44;102179.69;;;15.52;43.04
79376;BME280;68846;53.150;18.136;2023-05-07T11:31:10;102177.45;;;15.57;42.83
79376;BME280;68846;53.150;18.136;2023-05-07T11:33:38;102177.64;;;15.58;41.73
79376;BME280;68846;53.150;18.136;2023-05-07T11:36:05;102173.55;;;15.57;41.67
79376;BME280;68846;53.150;18.136;2023-05-07T11:38:37;102173.70;;;15.56;41.71
79376;BME280;68846;53.150;18.136;2023-05-07T11:41:04;102171.38;;;15.55;42.50
79376;BME280;68846;53.150;18.136;2023-05-07T11:43:32;102162.42;;;15.49;41.66
79376;BME280;68846;53.150;18.136;2023-05-07T11:46:09;102161.49;;;15.35;41.97
79376;BME280;68846;53.150;18.136;2023-05-07T11:48:36;102169.48;;;15.23;41.59
79376;BME280;68846;53.150;18.136;2023-05-07T11:51:04;102168.40;;;15.10;41.23
79376;BME280;68846;53.150;18.136;2023-05-07T11:53:41;102174.20;;;14.95;41.77
79376;BME280;68846;53.150;18.136;2023-05-07T11:56:09;102171.52;;;14.94;41.22
79376;BME280;68846;53.150;18.136;2023-05-07T11:58:36;102165.34;;;14.96;41.05
79376;BME280;68846;53.150;18.136;2023-05-07T12:01:03;102176.93;;;15.11;41.31
79376;BME280;68846;53.150;18.136;2023-05-07T12:03:29;102174.48;;;15.25;41.18
79376;BME280;68846;53.150;18.136;2023-05-07T12:05:55;102178.65;;;15.53;39.67
79376;BME280;68846;53.150;18.136;2023-05-07T12:08:22;102176.16;;;15.77;38.03
79376;BME280;68846;53.150;18.136;2023-05-07T12:10:49;102168.39;;;15.94;39.70
79376;BME280;68846;53.150;18.136;2023-05-07T12:15:43;102175.21;;;16.49;38.67
79376;BME280;68846;53.150;18.136;2023-05-07T12:18:13;102175.73;;;16.64;37.82
79376;BME280;68846;53.150;18.136;2023-05-07T12:20:40;102178.11;;;16.69;38.54
79376;BME280;68846;53.150;18.136;2023-05-07T12:23:06;102181.42;;;16.65;37.00
79376;BME280;68846;53.150;18.136;2023-05-07T12:25:36;102180.64;;;16.57;36.93
79376;BME280;68846;53.150;18.136;2023-05-07T12:28:03;102170.80;;;16.67;38.90
79376;BME280;68846;53.150;18.136;2023-05-07T12:30:32;102171.83;;;16.80;37.36
79376;BME280;68846;53.150;18.136;2023-05-07T12:32:58;102176.77;;;16.76;38.47
79376;BME280;68846;53.150;18.136;2023-05-07T12:35:32;102175.21;;;16.82;38.26
79376;BME280;68846;53.150;18.136;2023-05-07T12:37:59;102176.61;;;16.98;38.23
79376;BME280;68846;53.150;18.136;2023-05-07T12:40:39;102173.75;;;16.97;37.57
79376;BME280;68846;53.150;18.136;2023-05-07T12:43:06;102178.80;;;17.06;37.51
79376;BME280;68846;53.150;18.136;2023-05-07T12:45:37;102178.94;;;17.00;35.77
79376;BME280;68846;53.150;18.136;2023-05-07T12:48:05;102173.16;;;16.92;35.75
79376;BME280;68846;53.150;18.136;2023-05-07T12:50:32;102164.50;;;16.99;36.25
79376;BME280;68846;53.150;18.136;2023-05-07T12:52:59;102161.95;;;17.15;36.66
79376;BME280;68846;53.150;18.136;2023-05-07T12:55:26;102173.67;;;17.38;36.17
79376;BME280;68846;53.150;18.136;2023-05-07T12:57:53;102162.92;;;17.52;35.49
79376;BME280;68846;53.150;18.136;2023-05-07T13:00:35;102176.96;;;17.75;35.16
79376;BME280;68846;53.150;18.136;2023-05-07T13:03:01;102171.70;;;17.94;34.53
79376;BME280;68846;53.150;18.136;2023-05-07T13:05:28;102172.66;;;18.12;33.72
79376;BME280;68846;53.150;18.136;2023-05-07T13:07:55;102170.55;;;18.22;32.71
79376;BME280;68846;53.150;18.136;2023-05-07T13:10:22;102169.86;;;18.32;32.97